createdAt,value
2018-10-01T00:01:12.645Z,12.00
2018-10-01T00:06:16.211Z,12.00
2018-10-01T00:11:20.075Z,12.00
2018-10-01T00:16:23.619Z,12.00
2018-10-01T00:21:32.388Z,12.00
2018-10-01T00:26:35.887Z,11.90
2018-10-01T00:31:39.653Z,11.90
2018-10-01T00:36:43.481Z,11.90
2018-10-01T00:41:47.740Z,11.80
2018-10-01T00:46:51.542Z,11.70
2018-10-01T00:51:55.083Z,11.70
2018-10-01T00:56:58.594Z,11.70
2018-10-01T01:02:02.079Z,11.60
2018-10-01T01:07:05.677Z,11.70
2018-10-01T01:12:09.246Z,11.60
2018-10-01T01:17:13.478Z,11.60
2018-10-01T01:22:18.029Z,11.60
2018-10-01T01:27:22.378Z,11.60
2018-10-01T01:32:26.187Z,11.60
2018-10-01T01:37:29.693Z,11.60
2018-10-01T01:42:33.336Z,11.60
2018-10-01T01:47:37.026Z,11.50
2018-10-01T01:52:41.208Z,11.50
2018-10-01T01:57:45.009Z,11.50
2018-10-01T02:02:49.002Z,11.50
2018-10-01T02:07:52.558Z,11.40
2018-10-01T02:12:56.102Z,11.30
2018-10-01T02:17:59.581Z,11.40
2018-10-01T02:23:03.096Z,11.30
2018-10-01T02:28:07.061Z,11.40
2018-10-01T02:33:10.736Z,11.30
2018-10-01T02:38:14.956Z,11.30
2018-10-01T02:43:19.030Z,11.30
2018-10-01T02:48:22.530Z,11.20
2018-10-01T02:53:31.152Z,11.20
2018-10-01T02:58:34.651Z,11.10
2018-10-01T03:03:38.171Z,11.00
2018-10-01T03:08:41.679Z,11.00
2018-10-01T03:13:45.678Z,10.90
2018-10-01T03:18:49.701Z,10.80
2018-10-01T03:23:53.251Z,10.80
2018-10-01T03:28:57.017Z,10.70
2018-10-01T03:34:00.616Z,10.60
2018-10-01T03:39:05.594Z,10.60
2018-10-01T03:44:10.393Z,10.60
2018-10-01T03:49:15.036Z,10.60
2018-10-01T03:54:18.519Z,10.50
2018-10-01T03:59:22.018Z,10.50
2018-10-01T04:04:25.541Z,10.40
2018-10-01T04:09:29.039Z,10.40
2018-10-01T04:14:32.918Z,10.30
2018-10-01T04:19:36.651Z,10.20
2018-10-01T04:24:40.750Z,10.20
2018-10-01T04:29:45.161Z,10.00
2018-10-01T04:34:48.761Z,9.90
2018-10-01T04:39:52.266Z,10.00
2018-10-01T04:44:55.754Z,9.90
2018-10-01T04:49:59.335Z,9.80
2018-10-01T04:55:03.537Z,9.70
2018-10-01T05:00:08.841Z,9.70
2018-10-01T05:05:12.576Z,9.60
2018-10-01T05:10:16.110Z,9.50
2018-10-01T05:15:19.657Z,9.50
2018-10-01T05:20:23.184Z,9.40
2018-10-01T05:25:26.766Z,9.40
2018-10-01T05:30:30.422Z,9.40
2018-10-01T05:35:34.420Z,9.50
2018-10-01T05:40:38.144Z,9.50
2018-10-01T05:45:42.160Z,9.50
2018-10-01T05:50:46.425Z,9.70
2018-10-01T05:55:50.009Z,9.70
2018-10-01T06:00:53.607Z,9.50
2018-10-01T06:05:57.098Z,9.50
2018-10-01T06:11:00.575Z,9.50
2018-10-01T06:16:04.127Z,9.50
2018-10-01T06:21:08.296Z,9.50
2018-10-01T06:26:12.258Z,9.40
2018-10-01T06:31:15.771Z,9.50
2018-10-01T06:36:19.601Z,9.50
2018-10-01T06:41:23.090Z,9.50
2018-10-01T06:46:26.585Z,9.60
2018-10-01T06:51:30.080Z,9.60
2018-10-01T06:56:34.094Z,9.70
2018-10-01T07:01:37.748Z,9.90
2018-10-01T07:06:41.568Z,10.10
2018-10-01T07:11:46.192Z,10.20
2018-10-01T07:16:49.770Z,10.50
2018-10-01T07:21:53.293Z,10.70
2018-10-01T07:26:57.023Z,11.00
2018-10-01T07:32:01.259Z,11.20
2018-10-01T07:37:05.037Z,11.40
2018-10-01T07:42:09.141Z,11.50
2018-10-01T07:47:12.652Z,11.50
2018-10-01T07:52:16.269Z,11.50
2018-10-01T07:57:19.848Z,11.60
2018-10-01T08:02:23.426Z,11.50
2018-10-01T08:07:28.549Z,11.60
2018-10-01T08:12:32.369Z,11.40
2018-10-01T08:17:35.893Z,11.70
2018-10-01T08:22:39.402Z,11.70
2018-10-01T08:27:42.890Z,11.70
2018-10-01T08:32:46.403Z,12.00
2018-10-01T08:37:49.946Z,12.30
2018-10-01T08:42:53.463Z,12.10
2018-10-01T08:47:57.205Z,12.00
2018-10-01T08:53:21.711Z,12.10
2018-10-01T08:58:25.279Z,12.30
2018-10-01T09:03:28.761Z,12.10
2018-10-01T09:08:32.396Z,12.00
2018-10-01T09:13:36.572Z,11.60
2018-10-01T09:18:40.417Z,11.50
2018-10-01T09:23:44.217Z,11.50
2018-10-01T09:28:49.696Z,11.60
2018-10-01T09:33:53.572Z,11.70
2018-10-01T09:38:57.485Z,11.90
2018-10-01T09:44:01.255Z,12.00
2018-10-01T09:49:05.092Z,12.40
2018-10-01T09:54:08.612Z,12.70
2018-10-01T09:59:12.105Z,12.80
2018-10-01T10:04:15.648Z,12.50
2018-10-01T10:09:19.951Z,12.30
2018-10-01T10:14:23.696Z,12.20
2018-10-01T10:19:27.301Z,12.20
2018-10-01T10:24:30.912Z,12.40
2018-10-01T10:29:34.420Z,12.40
2018-10-01T10:34:38.054Z,12.30
2018-10-01T10:39:41.593Z,11.80
2018-10-01T10:44:45.139Z,11.70
2018-10-01T10:49:48.646Z,11.90
2018-10-01T10:54:52.165Z,12.50
2018-10-01T10:59:56.308Z,12.50
2018-10-01T11:04:59.884Z,12.60
2018-10-01T11:10:03.750Z,12.70
2018-10-01T11:15:07.959Z,12.70
2018-10-01T11:20:11.885Z,12.60
2018-10-01T11:25:15.480Z,12.30
2018-10-01T11:30:18.939Z,12.00
2018-10-01T11:35:22.570Z,12.00
2018-10-01T11:40:26.105Z,12.40
2018-10-01T11:45:29.859Z,12.80
2018-10-01T11:50:33.953Z,12.80
2018-10-01T11:55:37.771Z,12.90
2018-10-01T12:00:41.517Z,12.80
2018-10-01T12:05:44.981Z,12.90
2018-10-01T12:10:48.527Z,13.20
2018-10-01T12:15:52.227Z,13.20
2018-10-01T12:20:56.062Z,13.20
2018-10-01T12:26:00.645Z,13.50
2018-10-01T12:31:04.191Z,13.70
2018-10-01T12:36:07.817Z,13.70
2018-10-01T12:41:11.283Z,13.70
2018-10-01T12:46:14.864Z,13.50
2018-10-01T12:51:18.456Z,13.20
2018-10-01T12:56:22.078Z,13.50
2018-10-01T13:01:26.012Z,13.70
2018-10-01T13:06:30.208Z,14.20
2018-10-01T13:11:33.806Z,14.40
2018-10-01T13:16:38.275Z,15.10
2018-10-01T13:21:41.781Z,15.30
2018-10-01T13:26:45.325Z,15.30
2018-10-01T13:31:49.831Z,15.10
2018-10-01T13:36:53.473Z,15.10
2018-10-01T13:41:57.996Z,15.00
2018-10-01T13:47:01.653Z,14.60
2018-10-01T13:52:05.173Z,13.80
2018-10-01T13:57:08.666Z,13.20
2018-10-01T14:02:12.367Z,13.30
2018-10-01T14:07:16.219Z,13.50
2018-10-01T14:12:20.099Z,13.50
2018-10-01T14:17:23.754Z,13.50
2018-10-01T14:22:27.600Z,13.30
2018-10-01T14:27:31.332Z,13.40
2018-10-01T14:32:34.883Z,13.70
2018-10-01T14:37:38.368Z,13.60
2018-10-01T14:42:42.214Z,13.40
2018-10-01T14:47:45.702Z,13.20
2018-10-01T14:52:49.449Z,12.70
2018-10-01T14:57:53.486Z,12.10
2018-10-01T15:02:57.105Z,11.60
2018-10-01T15:08:01.680Z,11.30
2018-10-01T15:13:06.265Z,11.20
2018-10-01T15:18:09.778Z,11.30
2018-10-01T15:23:13.365Z,11.50
2018-10-01T15:28:17.018Z,11.50
2018-10-01T15:33:20.887Z,11.70
2018-10-01T15:38:24.668Z,11.90
2018-10-01T15:43:28.232Z,12.10
2018-10-01T15:48:31.922Z,11.50
2018-10-01T15:53:35.383Z,11.20
2018-10-01T15:58:38.927Z,10.90
2018-10-01T16:03:42.474Z,10.70
2018-10-01T16:08:45.970Z,10.30
2018-10-01T16:13:49.533Z,10.10
2018-10-01T16:18:53.130Z,9.90
2018-10-01T16:23:57.268Z,9.70
2018-10-01T16:29:01.520Z,9.50
2018-10-01T16:34:06.157Z,9.50
2018-10-01T16:39:11.798Z,9.30
2018-10-01T16:44:15.451Z,9.10
2018-10-01T16:49:19.334Z,8.90
2018-10-01T16:54:22.932Z,8.70
2018-10-01T16:59:26.697Z,8.60
2018-10-01T17:04:30.190Z,8.30
2018-10-01T17:09:33.697Z,8.20
2018-10-01T17:14:37.191Z,8.10
2018-10-01T17:19:40.943Z,8.20
2018-10-01T17:24:44.761Z,8.40
2018-10-01T17:29:49.012Z,8.40
2018-10-01T17:34:53.508Z,8.10
2018-10-01T17:39:57.103Z,7.90
2018-10-01T17:45:00.809Z,7.70
2018-10-01T17:50:04.496Z,7.60
2018-10-01T17:55:08.286Z,7.40
2018-10-01T18:00:12.240Z,7.20
2018-10-01T18:05:15.853Z,7.00
2018-10-01T18:10:19.606Z,6.80
2018-10-01T18:15:23.367Z,6.80
2018-10-01T18:20:27.011Z,6.90
2018-10-01T18:25:30.556Z,7.10
2018-10-01T18:35:42.975Z,7.40
2018-10-01T18:40:46.706Z,7.70
2018-10-01T18:45:50.300Z,7.90
2018-10-01T18:50:54.356Z,8.10
2018-10-01T18:55:58.285Z,8.20
2018-10-01T19:01:02.187Z,8.30
2018-10-01T19:06:06.266Z,8.30
2018-10-01T19:11:09.885Z,8.30
2018-10-01T19:16:13.350Z,8.40
2018-10-01T19:21:17.042Z,8.40
2018-10-01T19:26:21.524Z,8.50
2018-10-01T19:31:25.447Z,8.50
2018-10-01T19:36:29.280Z,8.50
2018-10-01T19:41:32.996Z,8.50
2018-10-01T19:46:36.580Z,8.50
2018-10-01T19:51:40.072Z,8.50
2018-10-01T19:56:43.740Z,8.50
2018-10-01T20:01:47.270Z,8.50
2018-10-01T20:06:51.064Z,8.50
2018-10-01T20:11:55.690Z,8.50
2018-10-01T20:17:00.378Z,8.50
2018-10-01T20:22:04.335Z,8.50
2018-10-01T20:27:08.231Z,8.40
2018-10-01T20:32:12.272Z,8.30
2018-10-01T20:37:16.110Z,8.30
2018-10-01T20:42:20.331Z,8.30
2018-10-01T20:47:24.595Z,8.30
2018-10-01T20:52:28.145Z,8.30
2018-10-01T20:57:31.589Z,8.30
2018-10-01T21:02:35.188Z,8.20
2018-10-01T21:07:38.655Z,8.10
2018-10-01T21:12:42.526Z,8.00
2018-10-01T21:17:46.633Z,8.00
2018-10-01T21:22:50.338Z,7.90
2018-10-01T21:27:54.143Z,7.80
2018-10-01T21:32:59.185Z,7.60
2018-10-01T21:38:03.144Z,7.60
2018-10-01T21:43:06.953Z,7.60
2018-10-01T21:48:10.624Z,7.70
2018-10-01T21:53:15.189Z,7.80
2018-10-01T21:58:18.700Z,7.80
2018-10-01T22:03:22.296Z,7.70
2018-10-01T22:08:26.047Z,7.70
2018-10-01T22:13:29.840Z,7.60
2018-10-01T22:18:33.709Z,7.60
2018-10-01T22:23:38.145Z,7.60
2018-10-01T22:28:42.270Z,7.70
2018-10-01T22:33:45.880Z,7.70
2018-10-01T22:38:49.346Z,7.60
2018-10-01T22:43:53.500Z,7.50
2018-10-01T22:48:57.597Z,7.50
2018-10-01T22:54:01.354Z,7.50
2018-10-01T22:59:06.113Z,7.50
2018-10-01T23:04:09.643Z,7.40
2018-10-01T23:09:13.135Z,7.30
2018-10-01T23:14:16.608Z,7.10
2018-10-01T23:19:20.579Z,6.70
2018-10-01T23:24:24.863Z,6.40
2018-10-01T23:29:29.622Z,6.10
2018-10-01T23:34:33.370Z,5.80
2018-10-01T23:39:37.026Z,5.60
2018-10-01T23:44:40.525Z,5.50
2018-10-01T23:49:44.517Z,5.40
2018-10-01T23:54:49.319Z,5.20
2018-10-01T23:59:52.926Z,5.20
